Time;durP1;ratioP1;P1;durP2;ratioP2;P2;SDS_P1;SDS_P2;PMS_P1;PMS_P2;Temp;Humidity;BMP_temperature;BMP_pressure;BME280_temperature;BME280_humidity;BME280_pressure;Samples;Min_cycle;Max_cycle;Signal;HPM_P1;HPM_P2
2024/02/24 00:01:05;;;;;;;10.95;5.50;;;;;;;10.83;100.00;92768.72;5059157;28;20139;-74
2024/02/24 00:03:32;;;;;;;11.25;5.57;;;;;;;10.71;100.00;92760.22;5069464;28;20048;-73
2024/02/24 00:05:59;;;;;;;10.82;6.07;;;;;;;10.75;100.00;92769.06;5067270;28;20049;-74
2024/02/24 00:08:27;;;;;;;12.43;7.07;;;;;;;10.94;100.00;92782.59;5065718;28;20925;-73
2024/02/24 00:10:54;;;;;;;9.15;5.75;;;;;;;10.88;100.00;92781.69;5065342;28;20043;-73
2024/02/24 00:13:21;;;;;;;9.32;5.20;;;;;;;10.96;99.83;92781.38;5067524;28;20068;-74
2024/02/24 00:15:48;;;;;;;12.98;7.47;;;;;;;10.83;100.00;92779.00;5068554;28;20057;-74
2024/02/24 00:18:15;;;;;;;8.80;6.13;;;;;;;10.75;100.00;92776.75;5069116;28;20045;-73
2024/02/24 00:20:42;;;;;;;9.05;5.10;;;;;;;10.75;100.00;92782.69;5068988;28;20048;-74
2024/02/24 00:23:09;;;;;;;9.43;5.53;;;;;;;10.80;100.00;92776.88;5064228;28;20052;-74
2024/02/24 00:25:37;;;;;;;8.82;5.45;;;;;;;10.72;100.00;92775.41;5067566;28;20671;-74
2024/02/24 00:28:05;;;;;;;13.30;6.20;;;;;;;10.71;100.00;92778.19;5068868;28;20048;-73
2024/02/24 00:30:31;;;;;;;10.10;5.53;;;;;;;10.58;100.00;92769.69;5066416;28;20118;-73
2024/02/24 00:32:58;;;;;;;8.77;4.82;;;;;;;10.57;100.00;92780.97;5065358;28;20430;-73
2024/02/24 00:35:28;;;;;;;8.95;6.32;;;;;;;10.64;100.00;92786.03;5068608;28;20048;-73
2024/02/24 00:37:55;;;;;;;8.88;5.50;;;;;;;10.60;100.00;92784.88;5067840;28;20048;-73
2024/02/24 00:40:22;;;;;;;11.57;6.25;;;;;;;10.62;100.00;92783.66;5063077;28;20051;-73
2024/02/24 00:42:50;;;;;;;8.30;4.93;;;;;;;10.60;100.00;92782.31;5062717;28;20049;-73
2024/02/24 00:45:17;;;;;;;8.90;4.57;;;;;;;10.37;100.00;92737.59;5067738;28;20126;-73
2024/02/24 00:47:44;;;;;;;8.25;4.72;;;;;;;10.45;100.00;92757.81;5068461;28;20418;-74
2024/02/24 00:50:11;;;;;;;8.48;5.10;;;;;;;10.55;100.00;92773.47;5065559;28;20173;-74
2024/02/24 00:52:38;;;;;;;8.63;5.00;;;;;;;10.64;100.00;92758.53;5063060;28;20051;-74
2024/02/24 00:55:05;;;;;;;7.82;4.20;;;;;;;10.50;100.00;92764.84;5063135;28;20084;-74
2024/02/24 00:57:32;;;;;;;5.88;4.22;;;;;;;10.62;100.00;92755.41;5067859;28;20059;-74
2024/02/24 01:00:01;;;;;;;7.88;4.90;;;;;;;10.48;100.00;92751.47;5068088;28;20632;-74
2024/02/24 01:02:28;;;;;;;8.73;4.93;;;;;;;10.42;100.00;92751.31;5066199;28;20056;-73
2024/02/24 01:04:55;;;;;;;7.78;4.57;;;;;;;10.45;100.00;92747.56;5067017;28;20050;-72
2024/02/24 01:07:22;;;;;;;6.20;4.10;;;;;;;10.43;100.00;92757.28;5062767;28;20049;-73
2024/02/24 01:09:49;;;;;;;11.15;5.20;;;;;;;10.40;100.00;92750.75;5062074;28;20063;-73
2024/02/24 01:12:16;;;;;;;10.43;5.90;;;;;;;10.47;100.00;92748.13;5067850;28;20044;-73
2024/02/24 01:14:43;;;;;;;6.75;4.30;;;;;;;10.49;100.00;92751.25;5067775;28;20517;-73
2024/02/24 01:17:11;;;;;;;7.28;3.83;;;;;;;10.40;100.00;92749.97;5063741;28;20080;-73
2024/02/24 01:19:38;;;;;;;7.07;3.97;;;;;;;10.49;100.00;92756.38;5067378;28;20076;-73
2024/02/24 01:22:06;;;;;;;5.90;3.50;;;;;;;10.49;100.00;92753.03;5061752;28;20131;-73
2024/02/24 01:24:33;;;;;;;8.15;4.00;;;;;;;10.50;100.00;92759.72;5066982;28;20048;-73
2024/02/24 01:27:00;;;;;;;7.95;4.22;;;;;;;10.44;100.00;92761.41;5067548;28;20422;-72
2024/02/24 01:29:27;;;;;;;8.82;4.72;;;;;;;10.50;100.00;92759.72;5067648;28;20485;-73
2024/02/24 01:31:54;;;;;;;12.27;5.78;;;;;;;10.42;100.00;92759.00;5062994;28;20327;-72
2024/02/24 01:34:22;;;;;;;8.38;4.72;;;;;;;10.40;100.00;92755.91;5067840;28;20040;-73
2024/02/24 01:36:49;;;;;;;9.85;4.65;;;;;;;10.46;100.00;92772.22;5066752;28;20044;-73
2024/02/24 01:39:16;;;;;;;7.25;3.45;;;;;;;10.41;100.00;92777.19;5067285;28;20059;-73
2024/02/24 01:41:43;;;;;;;9.88;5.47;;;;;;;10.40;100.00;92766.16;5061615;28;20144;-73
2024/02/24 01:44:10;;;;;;;6.40;3.88;;;;;;;10.40;100.00;92765.38;5062752;28;20056;-73
2024/02/24 01:46:36;;;;;;;6.13;3.40;;;;;;;10.40;99.89;92755.91;5066211;28;20044;-73
2024/02/24 01:49:03;;;;;;;6.30;3.38;;;;;;;10.30;100.00;92755.63;5063745;28;20047;-73
2024/02/24 01:51:32;;;;;;;6.68;3.55;;;;;;;10.24;100.00;92739.31;5066524;28;20505;-73
2024/02/24 01:53:59;;;;;;;5.97;3.50;;;;;;;10.27;100.00;92756.84;5065274;28;20513;-73
2024/02/24 01:56:26;;;;;;;6.85;3.58;;;;;;;10.26;100.00;92752.72;5066330;28;20048;-73
2024/02/24 01:58:53;;;;;;;5.60;4.10;;;;;;;10.25;100.00;92756.31;5067008;28;20058;-73
2024/02/24 02:01:20;;;;;;;5.25;3.40;;;;;;;10.25;100.00;92758.88;5066624;28;20049;-73
2024/02/24 02:03:48;;;;;;;5.50;3.42;;;;;;;10.33;99.62;92767.25;5062965;28;20040;-73
2024/02/24 02:06:15;;;;;;;7.03;2.90;;;;;;;10.28;99.32;92765.34;5066457;28;20040;-73
2024/02/24 02:08:43;;;;;;;7.45;4.15;;;;;;;10.27;99.96;92766.31;5066827;28;20044;-73
2024/02/24 02:11:11;;;;;;;5.20;3.50;;;;;;;10.19;99.99;92762.31;5061963;28;20048;-73
2024/02/24 02:13:38;;;;;;;6.80;3.78;;;;;;;10.21;100.00;92765.44;5061810;28;20103;-73
2024/02/24 02:16:06;;;;;;;9.32;5.32;;;;;;;10.18;100.00;92765.84;5066276;28;20127;-73
2024/02/24 02:18:33;;;;;;;5.47;3.50;;;;;;;10.15;100.00;92763.75;5062104;28;20083;-73
2024/02/24 02:21:00;;;;;;;7.22;3.70;;;;;;;10.11;100.00;92765.16;5065745;28;20052;-73
2024/02/24 02:23:28;;;;;;;6.18;3.60;;;;;;;10.13;100.00;92763.94;5063403;28;20052;-73
2024/02/24 02:25:56;;;;;;;5.32;3.28;;;;;;;10.16;100.00;92767.88;5064983;28;20052;-73
2024/02/24 02:28:23;;;;;;;5.38;3.50;;;;;;;10.19;100.00;92776.91;5066642;28;20413;-73
2024/02/24 02:30:50;;;;;;;5.53;3.72;;;;;;;10.16;100.00;92776.34;5067036;28;20045;-73
2024/02/24 02:33:17;;;;;;;6.00;3.17;;;;;;;10.12;99.98;92777.00;5062449;28;20131;-73
2024/02/24 02:35:43;;;;;;;6.60;3.67;;;;;;;10.20;99.38;92778.47;5066192;28;20106;-74
2024/02/24 02:38:10;;;;;;;6.10;3.45;;;;;;;10.18;99.70;92777.91;5063943;28;20401;-74
2024/02/24 02:40:39;;;;;;;6.35;4.10;;;;;;;10.14;99.83;92782.72;5064879;28;20051;-73
2024/02/24 02:43:06;;;;;;;6.07;3.17;;;;;;;10.18;99.39;92778.69;5057313;28;20119;-73
2024/02/24 02:45:33;;;;;;;5.97;3.33;;;;;;;10.08;99.01;92774.09;5066510;28;20440;-74
2024/02/24 02:48:00;;;;;;;5.90;3.65;;;;;;;10.15;99.15;92785.03;5065951;28;20147;-74
2024/02/24 02:50:27;;;;;;;6.22;3.80;;;;;;;10.14;98.91;92775.00;5066379;28;20046;-75
2024/02/24 02:52:54;;;;;;;4.40;3.00;;;;;;;10.11;99.39;92778.00;5063328;28;20732;-73
2024/02/24 02:55:21;;;;;;;6.68;3.53;;;;;;;10.13;99.99;92776.78;5063702;28;20071;-73
2024/02/24 02:57:50;;;;;;;4.65;3.10;;;;;;;10.11;100.00;92781.34;5063804;28;20497;-73
2024/02/24 03:00:17;;;;;;;5.82;3.67;;;;;;;10.03;100.00;92769.59;5066414;28;20127;-73
2024/02/24 03:02:44;;;;;;;6.22;3.80;;;;;;;10.03;100.00;92786.78;5066496;28;20053;-73
2024/02/24 03:05:11;;;;;;;7.35;3.78;;;;;;;10.04;100.00;92783.19;5061685;28;20051;-73
2024/02/24 03:07:38;;;;;;;7.60;4.28;;;;;;;9.96;100.00;92781.72;5066238;28;20086;-73
2024/02/24 03:10:06;;;;;;;7.30;4.57;;;;;;;9.91;100.00;92780.81;5062317;28;20058;-73
2024/02/24 03:12:33;;;;;;;7.00;4.70;;;;;;;9.89;100.00;92781.03;5062295;28;20076;-73
2024/02/24 03:15:02;;;;;;;6.15;3.53;;;;;;;9.88;100.00;92782.03;5064667;28;20155;-73
2024/02/24 03:17:29;;;;;;;7.57;4.40;;;;;;;10.03;100.00;92784.22;5065758;28;20049;-73
2024/02/24 03:19:56;;;;;;;6.45;3.65;;;;;;;10.05;100.00;92782.22;5066140;28;20131;-73
2024/02/24 03:22:23;;;;;;;9.77;5.30;;;;;;;10.01;100.00;92786.22;5061727;28;20718;-73
2024/02/24 03:24:50;;;;;;;8.73;4.07;;;;;;;10.02;100.00;92795.47;5065548;28;20128;-73
2024/02/24 03:27:17;;;;;;;7.45;4.55;;;;;;;10.00;100.00;92798.25;5065874;28;20135;-73
2024/02/24 03:29:44;;;;;;;7.30;3.60;;;;;;;10.06;100.00;92793.25;5061707;28;20059;-73
2024/02/24 03:32:12;;;;;;;8.50;4.07;;;;;;;10.02;100.00;92798.84;5065538;28;20498;-73
2024/02/24 03:34:39;;;;;;;8.23;4.03;;;;;;;10.05;100.00;92797.63;5070045;28;20045;-73
2024/02/24 03:37:06;;;;;;;6.80;3.72;;;;;;;10.09;100.00;92798.75;5063932;28;20047;-73
2024/02/24 03:39:33;;;;;;;6.10;3.70;;;;;;;10.06;100.00;92803.53;5067451;28;20037;-73
2024/02/24 03:42:00;;;;;;;5.82;3.30;;;;;;;10.05;100.00;92799.41;5067424;28;20052;-73
2024/02/24 03:44:27;;;;;;;6.30;3.83;;;;;;;10.04;100.00;92808.88;5064414;28;20133;-73
2024/02/24 03:46:54;;;;;;;6.82;3.50;;;;;;;10.04;100.00;92801.16;5069131;28;20046;-73
2024/02/24 03:49:22;;;;;;;6.35;3.50;;;;;;;10.02;100.00;92806.53;5069725;28;20405;-73
2024/02/24 03:51:49;;;;;;;6.60;3.90;;;;;;;9.98;100.00;92805.41;5063851;28;20524;-73
2024/02/24 03:54:16;;;;;;;6.53;4.30;;;;;;;9.87;100.00;92788.16;5066925;28;20390;-73
2024/02/24 03:56:43;;;;;;;6.75;3.80;;;;;;;9.88;100.00;92805.13;5069734;28;20056;-73
2024/02/24 03:59:10;;;;;;;8.00;3.60;;;;;;;9.87;100.00;92809.44;5063130;28;20044;-73
2024/02/24 04:01:37;;;;;;;6.20;3.38;;;;;;;9.85;100.00;92813.22;5068841;28;20052;-73
2024/02/24 04:04:04;;;;;;;6.18;3.42;;;;;;;9.95;100.00;92821.22;5069545;28;20141;-73
2024/02/24 04:06:32;;;;;;;5.05;3.40;;;;;;;9.98;100.00;92807.97;5064821;28;20040;-73
2024/02/24 04:08:59;;;;;;;7.00;3.50;;;;;;;9.89;100.00;92824.63;5069106;28;20958;-74
2024/02/24 04:11:26;;;;;;;5.95;3.65;;;;;;;9.88;100.00;92816.16;5069441;28;20216;-75
2024/02/24 04:13:53;;;;;;;6.43;3.80;;;;;;;10.05;99.96;92805.31;5063988;28;20127;-74
2024/02/24 04:16:20;;;;;;;6.65;4.05;;;;;;;9.96;100.00;92801.47;5068848;28;20062;-74
2024/02/24 04:18:47;;;;;;;6.90;3.78;;;;;;;9.98;99.51;92815.66;5069159;28;20050;-73
2024/02/24 04:21:17;;;;;;;7.55;3.90;;;;;;;10.02;99.60;92813.44;5066580;28;20045;-74
2024/02/24 04:23:45;;;;;;;6.60;4.45;;;;;;;9.92;99.11;92802.91;5064046;28;20059;-73
2024/02/24 04:26:12;;;;;;;7.65;3.67;;;;;;;9.88;99.11;92805.13;5066054;28;20048;-73
2024/02/24 04:28:39;;;;;;;6.43;3.25;;;;;;;9.91;99.41;92819.28;5068832;28;20067;-74
2024/02/24 04:31:06;;;;;;;7.13;3.88;;;;;;;9.97;98.94;92811.53;5067114;28;20047;-74
2024/02/24 04:33:33;;;;;;;6.53;3.65;;;;;;;9.86;99.47;92825.84;5066965;28;20048;-74
2024/02/24 04:36:02;;;;;;;8.93;4.07;;;;;;;9.91;99.77;92834.69;5067453;28;20063;-74
2024/02/24 04:38:29;;;;;;;8.00;4.05;;;;;;;9.91;99.53;92832.91;5068733;28;20076;-74
2024/02/24 04:40:58;;;;;;;5.60;3.55;;;;;;;9.73;100.00;92823.44;5068678;28;20051;-74
2024/02/24 04:43:24;;;;;;;5.25;3.08;;;;;;;9.71;100.00;92833.09;5062463;28;20058;-73
2024/02/24 04:45:51;;;;;;;5.80;3.40;;;;;;;9.67;99.94;92835.31;5067593;28;20048;-73
2024/02/24 04:48:18;;;;;;;6.47;3.33;;;;;;;9.54;100.00;92831.09;5066528;28;20397;-73
2024/02/24 04:50:45;;;;;;;6.57;3.67;;;;;;;9.63;99.84;92829.06;5067767;28;20063;-73
2024/02/24 04:53:12;;;;;;;6.78;4.18;;;;;;;9.63;100.00;92826.50;5064366;28;20048;-74
2024/02/24 04:55:39;;;;;;;6.32;3.67;;;;;;;9.52;100.00;92822.03;5066857;28;20049;-73
2024/02/24 04:58:07;;;;;;;11.13;3.92;;;;;;;9.58;100.00;92813.53;5062453;28;20051;-73
2024/02/24 05:00:34;;;;;;;8.55;4.28;;;;;;;9.55;100.00;92812.19;5061183;28;20087;-74
2024/02/24 05:03:01;;;;;;;5.55;3.42;;;;;;;9.65;100.00;92824.50;5068269;28;20128;-73
2024/02/24 05:05:28;;;;;;;8.68;3.38;;;;;;;9.67;100.00;92837.13;5063923;28;20044;-75
2024/02/24 05:07:55;;;;;;;5.95;3.60;;;;;;;9.71;100.00;92843.38;5067160;28;20055;-73
2024/02/24 05:10:22;;;;;;;7.40;4.10;;;;;;;9.71;99.98;92845.94;5068283;28;20396;-73
2024/02/24 05:12:49;;;;;;;6.03;4.22;;;;;;;9.67;99.70;92840.44;5064766;28;20052;-73
2024/02/24 05:15:18;;;;;;;5.05;3.17;;;;;;;9.68;99.51;92847.13;5066401;28;20052;-73
2024/02/24 05:17:45;;;;;;;5.65;3.70;;;;;;;9.67;98.49;92853.28;5067554;28;20047;-74
2024/02/24 05:20:13;;;;;;;6.35;3.30;;;;;;;9.72;98.42;92850.84;5065920;28;20574;-73
2024/02/24 05:22:40;;;;;;;6.38;3.42;;;;;;;9.69;98.45;92861.56;5065251;28;20060;-73
2024/02/24 05:25:09;;;;;;;7.68;3.60;;;;;;;9.72;98.54;92868.81;5067178;28;20048;-73
2024/02/24 05:27:36;;;;;;;7.75;4.13;;;;;;;9.78;97.88;92869.75;5065828;28;20518;-73
2024/02/24 05:30:04;;;;;;;9.15;4.35;;;;;;;9.91;97.19;92889.34;5061486;28;20051;-73
2024/02/24 05:32:32;;;;;;;6.57;4.00;;;;;;;9.91;96.79;92873.16;5067649;28;20123;-73
2024/02/24 05:34:59;;;;;;;7.70;3.60;;;;;;;9.91;96.05;92873.97;5066921;28;20044;-72
2024/02/24 05:37:26;;;;;;;4.95;3.58;;;;;;;9.99;95.61;92888.28;5065311;28;20048;-73
2024/02/24 05:39:53;;;;;;;6.50;3.63;;;;;;;9.99;94.68;92898.53;5050391;28;20045;-73
2024/02/24 05:42:20;;;;;;;6.07;3.45;;;;;;;10.10;94.13;92891.91;5055930;28;20507;-74
2024/02/24 05:44:47;;;;;;;6.70;4.10;;;;;;;9.94;94.86;92888.13;5054928;28;20413;-73
2024/02/24 05:47:14;;;;;;;5.07;3.13;;;;;;;10.06;94.71;92901.84;5050210;28;20055;-73
2024/02/24 05:49:42;;;;;;;5.63;3.00;;;;;;;10.08;95.24;92910.09;5052458;28;20066;-72
2024/02/24 05:52:09;;;;;;;4.88;3.13;;;;;;;10.12;95.76;92915.56;5055693;28;20358;-74
2024/02/24 05:54:40;;;;;;;5.35;3.20;;;;;;;10.06;95.53;92906.16;5054601;28;20046;-73
2024/02/24 05:57:07;;;;;;;6.90;3.28;;;;;;;10.10;94.96;92912.44;5052478;28;20619;-73
2024/02/24 05:59:35;;;;;;;6.30;3.85;;;;;;;10.00;94.96;92895.75;5054955;28;20044;-73
2024/02/24 06:02:02;;;;;;;7.47;3.33;;;;;;;10.15;94.09;92920.28;5059739;28;20057;-73
2024/02/24 06:04:29;;;;;;;7.45;3.28;;;;;;;10.18;93.41;92906.25;5050638;28;20168;-73
2024/02/24 06:06:57;;;;;;;6.38;3.20;;;;;;;10.48;91.59;92924.31;5048634;28;20052;-73
2024/02/24 06:09:24;;;;;;;7.68;4.03;;;;;;;10.34;92.69;92922.84;5051071;28;20045;-73
2024/02/24 06:11:52;;;;;;;7.88;3.55;;;;;;;10.26;92.16;92916.22;5048573;28;20068;-73
2024/02/24 06:14:19;;;;;;;6.05;3.55;;;;;;;10.43;91.82;92922.38;5051578;28;20049;-73
2024/02/24 06:16:46;;;;;;;7.05;3.20;;;;;;;10.26;91.55;92904.19;5047555;28;20059;-72
2024/02/24 06:19:13;;;;;;;10.15;3.33;;;;;;;10.41;91.86;92923.56;5051241;28;20414;-72
2024/02/24 06:21:40;;;;;;;9.00;4.03;;;;;;;10.62;91.27;92919.78;5050530;28;20057;-72
2024/02/24 06:24:08;;;;;;;7.38;3.80;;;;;;;10.53;90.93;92928.78;5053615;28;20044;-72
2024/02/24 06:26:35;;;;;;;7.22;3.78;;;;;;;10.54;90.26;92923.44;5053630;28;20047;-73
2024/02/24 06:29:02;;;;;;;9.15;4.20;;;;;;;10.61;90.01;92925.13;5052243;28;20062;-72
2024/02/24 06:31:29;;;;;;;10.05;3.92;;;;;;;10.56;89.88;92926.56;5048775;28;20852;-72
2024/02/24 06:33:56;;;;;;;6.97;4.00;;;;;;;10.58;89.21;92928.94;5047525;28;20053;-72
2024/02/24 06:36:23;;;;;;;5.28;3.10;;;;;;;10.67;88.75;92921.69;5053541;28;20421;-72
2024/02/24 06:38:50;;;;;;;6.28;2.67;;;;;;;10.65;88.11;92927.06;5051048;28;20049;-72
2024/02/24 06:41:19;;;;;;;4.35;2.50;;;;;;;10.61;87.35;92918.22;5047813;28;20049;-72
2024/02/24 06:43:46;;;;;;;6.03;3.03;;;;;;;10.55;88.06;92931.91;5050350;28;20414;-72
2024/02/24 06:46:14;;;;;;;5.97;2.72;;;;;;;10.56;87.89;92934.28;5058259;28;20053;-71
2024/02/24 06:48:41;;;;;;;7.65;3.10;;;;;;;10.69;87.39;92945.38;5053763;28;20090;-72
2024/02/24 06:51:08;;;;;;;6.28;2.95;;;;;;;10.81;86.80;92924.88;5048906;28;20056;-72
2024/02/24 06:53:35;;;;;;;6.78;3.08;;;;;;;11.04;85.91;92933.69;5051487;28;20087;-73
2024/02/24 06:56:06;;;;;;;6.38;2.88;;;;;;;11.29;85.71;92932.75;5049131;28;20059;-73
2024/02/24 06:58:36;;;;;;;6.13;2.90;;;;;;;11.44;84.60;92948.53;5049018;28;20098;-73
2024/02/24 07:01:03;;;;;;;6.45;3.50;;;;;;;11.66;83.90;92940.28;5051557;28;20048;-74
2024/02/24 07:03:32;;;;;;;7.30;3.35;;;;;;;11.86;81.65;92945.09;5048415;28;20048;-73
2024/02/24 07:06:02;;;;;;;6.00;2.95;;;;;;;12.11;81.43;92933.03;5048913;28;20074;-73
2024/02/24 07:08:29;;;;;;;7.75;3.45;;;;;;;12.39;79.88;92942.63;5051839;28;20045;-74
2024/02/24 07:10:56;;;;;;;13.98;5.78;;;;;;;12.66;78.33;92938.75;5053198;28;20167;-73
2024/02/24 07:13:23;;;;;;;8.73;4.20;;;;;;;12.99;77.30;92947.59;5054463;28;20064;-73
2024/02/24 07:15:52;;;;;;;7.97;3.67;;;;;;;13.28;76.25;92939.84;5053679;28;20441;-73
2024/02/24 07:18:19;;;;;;;7.68;3.45;;;;;;;13.58;75.15;92941.38;5052428;28;20148;-73
2024/02/24 07:20:47;;;;;;;5.65;3.25;;;;;;;13.58;73.22;92925.09;5061965;28;20044;-73
2024/02/24 07:23:13;;;;;;;7.05;2.38;;;;;;;13.76;72.61;92937.00;5052405;28;20048;-74
2024/02/24 07:28:25;;;;;;;6.03;3.40;;;;;;;14.23;71.27;92953.91;5052640;28;20512;-74
2024/02/24 07:30:53;;;;;;;6.53;3.03;;;;;;;14.47;71.48;92963.22;5057035;28;21004;-74
2024/02/24 07:33:20;;;;;;;8.70;3.63;;;;;;;14.52;70.41;92938.25;5058770;28;20505;-74
2024/02/24 07:35:47;;;;;;;8.30;3.58;;;;;;;14.79;68.85;92952.28;5052605;28;20506;-74
2024/02/24 07:38:14;;;;;;;7.47;3.30;;;;;;;14.91;68.91;92965.09;5059821;28;20048;-74
2024/02/24 07:40:41;;;;;;;6.72;2.78;;;;;;;14.92;68.19;92957.09;5056742;28;20417;-75
2024/02/24 07:43:08;;;;;;;8.85;3.67;;;;;;;15.21;67.02;92974.97;5052969;28;20052;-75
2024/02/24 07:45:35;;;;;;;8.65;3.90;;;;;;;15.41;66.33;92978.75;5053319;28;20052;-74
2024/02/24 07:48:06;;;;;;;7.03;2.88;;;;;;;15.46;64.57;92983.97;5053171;28;20044;-75
2024/02/24 07:50:33;;;;;;;6.32;2.50;;;;;;;15.38;63.49;92979.25;5052452;28;20118;-75
2024/02/24 07:53:00;;;;;;;6.35;3.28;;;;;;;15.42;63.73;92984.72;5056452;28;20131;-74
2024/02/24 07:55:27;;;;;;;8.10;3.28;;;;;;;15.35;64.23;92985.69;5053217;28;20044;-75
2024/02/24 07:57:54;;;;;;;5.43;2.88;;;;;;;15.30;64.25;92984.84;5053837;28;20064;-75
2024/02/24 08:00:22;;;;;;;4.93;2.80;;;;;;;15.26;64.60;92978.59;5052238;28;20045;-75
2024/02/24 08:02:49;;;;;;;6.72;3.05;;;;;;;15.17;65.07;92975.66;5053355;28;20059;-75
2024/02/24 08:05:18;;;;;;;7.40;3.72;;;;;;;15.10;64.62;92981.06;5050992;28;20056;-75
2024/02/24 08:07:45;;;;;;;8.27;2.70;;;;;;;15.02;63.96;92981.47;5050973;28;20128;-75
2024/02/24 08:10:12;;;;;;;6.50;3.15;;;;;;;14.94;64.42;92983.47;5053555;28;20062;-75
2024/02/24 08:12:39;;;;;;;10.13;4.68;;;;;;;14.81;65.30;92983.81;5051536;28;20052;-75
2024/02/24 08:15:07;;;;;;;8.48;2.90;;;;;;;14.87;65.06;92988.06;5053867;28;20051;-74
2024/02/24 08:17:34;;;;;;;9.85;2.90;;;;;;;14.67;64.36;92985.97;5049151;28;20047;-75
2024/02/24 08:20:01;;;;;;;6.75;2.58;;;;;;;14.64;64.03;92992.41;5058369;28;20102;-74
2024/02/24 08:22:30;;;;;;;5.65;3.10;;;;;;;14.55;64.93;92986.09;5054621;28;20051;-74
2024/02/24 08:24:56;;;;;;;8.75;3.65;;;;;;;14.51;65.25;92970.28;5062393;28;20131;-74
2024/02/24 08:27:23;;;;;;;5.93;3.28;;;;;;;14.60;65.48;92983.56;5054899;28;20045;-74
2024/02/24 08:29:50;;;;;;;5.35;2.33;;;;;;;14.71;63.38;92984.47;5052059;28;20057;-73
2024/02/24 08:32:18;;;;;;;4.15;1.92;;;;;;;14.53;62.62;92985.53;5059145;28;20048;-74
2024/02/24 08:34:45;;;;;;;5.95;2.45;;;;;;;14.49;62.59;92987.06;5052514;28;20110;-74
2024/02/24 08:37:12;;;;;;;4.57;2.33;;;;;;;14.60;63.47;92986.16;5056841;28;20048;-75
2024/02/24 08:39:40;;;;;;;8.25;4.13;;;;;;;14.57;63.64;92974.50;5050719;28;20055;-74
2024/02/24 08:42:08;;;;;;;5.65;3.38;;;;;;;14.72;62.92;92973.09;5050527;28;20054;-74
2024/02/24 08:44:35;;;;;;;5.80;2.20;;;;;;;14.60;62.64;92980.19;5050653;28;20055;-74
2024/02/24 08:47:02;;;;;;;4.65;2.30;;;;;;;14.60;63.18;92983.56;5051415;28;20058;-74
2024/02/24 08:49:29;;;;;;;5.47;2.20;;;;;;;14.81;63.52;92983.81;5050943;28;20585;-74
2024/02/24 08:51:56;;;;;;;5.78;2.58;;;;;;;14.88;63.06;92991.41;5053190;28;20406;-75
2024/02/24 08:54:23;;;;;;;6.43;2.45;;;;;;;15.05;62.04;92991.34;5053596;28;20055;-74
2024/02/24 08:56:51;;;;;;;6.80;2.60;;;;;;;15.01;61.55;92972.94;5049753;28;20434;-74
2024/02/24 08:59:18;;;;;;;7.60;3.15;;;;;;;15.23;61.13;93001.38;5051314;28;20049;-74
2024/02/24 09:01:45;;;;;;;6.68;5.07;;;;;;;15.34;60.17;92989.31;5051587;28;20063;-74
2024/02/24 09:04:12;;;;;;;6.70;4.20;;;;;;;15.37;59.60;92988.06;5052406;28;20059;-74
2024/02/24 09:06:39;;;;;;;6.07;3.72;;;;;;;15.41;59.60;92996.88;5049274;28;20568;-74
2024/02/24 09:09:06;;;;;;;7.35;4.13;;;;;;;15.05;59.40;92955.91;5051146;28;20066;-74
2024/02/24 09:11:33;;;;;;;5.35;4.07;;;;;;;15.21;59.50;92995.66;5053637;28;20045;-74
2024/02/24 09:14:01;;;;;;;8.40;7.60;;;;;;;15.13;59.14;92985.72;5052148;28;20049;-74
2024/02/24 09:16:28;;;;;;;8.43;4.72;;;;;;;15.14;58.73;92989.88;5051733;28;20067;-74
2024/02/24 09:18:55;;;;;;;7.60;2.30;;;;;;;15.01;58.88;92992.84;5050977;28;20059;-74
2024/02/24 09:21:22;;;;;;;4.13;3.17;;;;;;;15.00;59.25;92991.28;5053773;28;20053;-74
2024/02/24 09:23:49;;;;;;;10.05;2.85;;;;;;;15.04;59.46;92987.97;5054510;28;20052;-75
2024/02/24 09:26:16;;;;;;;5.93;3.17;;;;;;;15.05;59.36;92991.34;5052102;28;20059;-75
2024/02/24 09:28:43;;;;;;;6.72;3.17;;;;;;;15.06;58.64;92988.53;5051917;28;20051;-75
2024/02/24 09:31:11;;;;;;;5.07;2.60;;;;;;;15.13;58.81;92988.31;5054244;28;20140;-76
2024/02/24 09:33:38;;;;;;;4.60;2.85;;;;;;;15.13;58.94;92990.91;5049187;28;20058;-75
2024/02/24 09:36:06;;;;;;;4.50;2.38;;;;;;;15.15;59.02;92988.09;5054249;28;20045;-75
2024/02/24 09:38:33;;;;;;;4.45;2.20;;;;;;;15.22;58.62;92992.03;5053371;28;20506;-75
2024/02/24 09:41:00;;;;;;;6.68;3.63;;;;;;;15.41;58.23;92988.34;5050513;28;20049;-76
2024/02/24 09:43:28;;;;;;;6.55;2.80;;;;;;;15.55;57.08;92983.53;5050112;28;20053;-75
2024/02/24 09:45:55;;;;;;;4.53;3.47;;;;;;;15.50;57.40;92979.09;5049520;28;20049;-76
2024/02/24 09:48:24;;;;;;;6.18;2.80;;;;;;;15.75;58.07;92977.75;5049677;28;20044;-76
2024/02/24 09:50:51;;;;;;;5.43;2.08;;;;;;;15.89;56.49;92976.28;5054744;28;20880;-76
2024/02/24 09:53:18;;;;;;;3.83;2.25;;;;;;;15.99;56.51;92982.59;5048673;28;20051;-76
2024/02/24 09:55:45;;;;;;;3.58;1.85;;;;;;;15.96;55.79;92981.28;5059346;28;20399;-75
2024/02/24 09:58:12;;;;;;;4.80;2.10;;;;;;;15.86;55.99;92981.19;5055659;28;20048;-75
2024/02/24 10:00:39;;;;;;;4.47;1.85;;;;;;;15.83;56.34;92974.69;5056769;28;20064;-76
2024/02/24 10:03:06;;;;;;;2.50;1.58;;;;;;;15.62;56.13;92953.84;5048808;28;20392;-76
2024/02/24 10:05:39;;;;;;;4.93;2.20;;;;;;;15.95;56.62;92973.75;5049623;28;20056;-76
2024/02/24 10:08:07;;;;;;;4.03;2.25;;;;;;;16.09;56.39;92985.28;5058151;28;20516;-75
2024/02/24 10:10:34;;;;;;;5.80;2.28;;;;;;;16.03;56.19;92979.25;5052422;28;20049;-76
2024/02/24 10:13:02;;;;;;;3.90;2.10;;;;;;;15.96;55.98;92978.69;5051000;28;20045;-76
2024/02/24 10:15:29;;;;;;;9.00;2.47;;;;;;;15.90;56.52;92987.44;5059120;28;20041;-76
2024/02/24 10:17:58;;;;;;;3.78;1.70;;;;;;;15.84;55.96;92985.84;5050160;28;20057;-76
2024/02/24 10:20:25;;;;;;;4.05;2.00;;;;;;;15.77;56.49;92971.31;5049794;28;20071;-75
2024/02/24 10:22:53;;;;;;;6.45;1.98;;;;;;;15.74;56.82;92976.97;5049352;28;20055;-76
2024/02/24 10:25:21;;;;;;;3.20;2.03;;;;;;;15.77;56.76;92963.53;5052325;28;20045;-75
2024/02/24 10:27:49;;;;;;;7.97;2.25;;;;;;;15.90;56.68;92972.69;5053491;28;20136;-75
2024/02/24 10:30:16;;;;;;;5.05;1.88;;;;;;;15.93;56.18;92989.56;5049244;28;20135;-75
2024/02/24 10:32:43;;;;;;;5.55;2.20;;;;;;;15.89;56.09;92976.28;5047596;28;20076;-76
2024/02/24 10:35:11;;;;;;;4.90;2.65;;;;;;;16.07;56.33;92989.13;5049838;28;20509;-75
2024/02/24 10:37:38;;;;;;;5.90;2.80;;;;;;;16.06;56.39;92992.75;5050941;28;20044;-75
2024/02/24 10:40:08;;;;;;;3.50;1.95;;;;;;;15.93;55.90;92992.16;5060334;28;20045;-75
2024/02/24 10:42:36;;;;;;;6.15;2.20;;;;;;;15.89;56.31;92991.06;5047474;28;21140;-75
2024/02/24 10:45:06;;;;;;;4.35;2.95;;;;;;;15.92;56.45;92995.72;5050208;28;20528;-75
2024/02/24 10:47:35;;;;;;;6.38;2.75;;;;;;;15.96;57.26;92993.47;5053441;28;20045;-75
2024/02/24 10:50:05;;;;;;;7.68;4.10;;;;;;;15.97;56.70;92984.69;5057911;28;20048;-75
2024/02/24 10:52:33;;;;;;;5.72;3.10;;;;;;;15.83;56.75;92985.06;5055293;28;20053;-75
2024/02/24 10:55:03;;;;;;;7.95;4.65;;;;;;;15.87;57.03;92980.16;5050496;28;20445;-75
2024/02/24 10:57:33;;;;;;;10.35;6.35;;;;;;;15.94;56.47;92980.78;5052091;28;20048;-75
2024/02/24 11:00:00;;;;;;;7.38;5.00;;;;;;;15.84;56.22;92976.25;5053064;28;20059;-75
2024/02/24 11:02:30;;;;;;;7.15;2.95;;;;;;;15.76;56.48;92985.28;5056208;28;20051;-76
2024/02/24 11:05:01;;;;;;;4.82;2.97;;;;;;;15.60;57.23;92981.00;5049469;28;20064;-75
2024/02/24 11:07:33;;;;;;;3.47;2.38;;;;;;;15.41;56.87;92985.75;5050870;28;20041;-75
2024/02/24 11:10:00;;;;;;;4.90;3.00;;;;;;;15.38;57.12;92994.00;5050265;28;20049;-78
2024/02/24 11:12:29;;;;;;;8.90;4.60;;;;;;;15.23;57.37;92975.50;5049238;28;20044;-79
2024/02/24 11:14:57;;;;;;;9.82;5.18;;;;;;;15.34;57.81;92981.56;5051241;28;20060;-81
2024/02/24 11:17:46;;;;;;;13.38;7.90;;;;;;;15.28;58.05;92959.22;5047926;28;20048;-82
2024/02/24 11:20:13;;;;;;;22.02;10.82;;;;;;;15.42;58.03;92977.72;5053391;28;20048;-82
2024/02/24 11:22:40;;;;;;;9.30;4.82;;;;;;;15.30;58.07;92948.63;5048919;28;20060;-77
2024/02/24 11:25:07;;;;;;;8.63;2.90;;;;;;;15.30;57.99;92957.19;5053047;28;20052;-77
2024/02/24 11:27:36;;;;;;;5.60;3.65;;;;;;;15.19;57.19;92965.88;5049369;28;20055;-77
2024/02/24 11:30:51;;;;;;;6.28;2.97;;;;;;;15.13;57.89;92953.91;5053151;28;20049;-77
2024/02/24 11:33:28;;;;;;;7.55;3.65;;;;;;;15.21;57.57;92958.66;4984058;28;20062;-77
2024/02/24 11:35:56;;;;;;;8.88;5.03;;;;;;;15.09;57.87;92940.69;4981779;28;20118;-77